Cedar Point, Kansas
Current Conditions -  °F | °C
As of 7:15 AM on Wednesday 22 Oct 2014 (Local Time) from KEWK Reporting Station
Clear Clear  
Wind Chill: 13°   Ceiling: Unl
Heat Index: 13°   Visibility: 3mi
Dew Point: 10°   Wind: 8mph
Humidity: 82%   Direction: 140°SE
Pressure: 30.12"   Gusts: NA
Location:  38.26°N, 96.82°W
Report Text: KEWK 221215Z AUTO 14007KT 3SM CLR 13/10 A3012 RMK AO1
Loading
Personal Weather Stations






























Interactive Weather Map
Tropical Storm Tracking
New forecast layout! Learn more

10-Day Weather Forecast

Advertisements
Track Severe Weather on mobile